sensor_id;sensor_type;location;lat;lon;timestamp;P1;durP1;ratioP1;P2;durP2;ratioP2
22871;SDS011;11603;44.910;8.630;2022-10-16T00:01:09;11.43;;;6.70;;
22871;SDS011;11603;44.910;8.630;2022-10-16T00:03:37;19.75;;;7.15;;
22871;SDS011;11603;44.910;8.630;2022-10-16T00:06:04;11.77;;;7.30;;
22871;SDS011;11603;44.910;8.630;2022-10-16T00:08:30;13.10;;;6.82;;
22871;SDS011;11603;44.910;8.630;2022-10-16T00:11:00;11.88;;;7.28;;
22871;SDS011;11603;44.910;8.630;2022-10-16T00:13:31;13.20;;;7.43;;
22871;SDS011;11603;44.910;8.630;2022-10-16T00:15:57;17.83;;;6.78;;
22871;SDS011;11603;44.910;8.630;2022-10-16T00:18:24;10.18;;;6.63;;
22871;SDS011;11603;44.910;8.630;2022-10-16T00:20:51;10.88;;;6.85;;
22871;SDS011;11603;44.910;8.630;2022-10-16T00:23:16;14.95;;;7.70;;
22871;SDS011;11603;44.910;8.630;2022-10-16T00:25:42;11.57;;;6.38;;
22871;SDS011;11603;44.910;8.630;2022-10-16T00:28:08;13.23;;;6.90;;
22871;SDS011;11603;44.910;8.630;2022-10-16T00:30:33;11.77;;;7.28;;
22871;SDS011;11603;44.910;8.630;2022-10-16T00:32:59;14.45;;;7.35;;
22871;SDS011;11603;44.910;8.630;2022-10-16T00:35:24;13.18;;;6.93;;
22871;SDS011;11603;44.910;8.630;2022-10-16T00:37:50;14.48;;;7.13;;
22871;SDS011;11603;44.910;8.630;2022-10-16T00:40:15;13.20;;;8.20;;
22871;SDS011;11603;44.910;8.630;2022-10-16T00:42:41;12.75;;;7.93;;
22871;SDS011;11603;44.910;8.630;2022-10-16T00:45:08;11.15;;;6.88;;
22871;SDS011;11603;44.910;8.630;2022-10-16T00:47:39;13.40;;;6.80;;
22871;SDS011;11603;44.910;8.630;2022-10-16T00:52:39;9.60;;;7.40;;
22871;SDS011;11603;44.910;8.630;2022-10-16T00:55:09;10.43;;;7.07;;
22871;SDS011;11603;44.910;8.630;2022-10-16T00:57:36;10.88;;;7.07;;
22871;SDS011;11603;44.910;8.630;2022-10-16T01:00:06;10.18;;;6.75;;
22871;SDS011;11603;44.910;8.630;2022-10-16T01:02:33;11.50;;;7.68;;
22871;SDS011;11603;44.910;8.630;2022-10-16T01:04:59;9.30;;;7.07;;
22871;SDS011;11603;44.910;8.630;2022-10-16T01:12:59;10.98;;;7.55;;
22871;SDS011;11603;44.910;8.630;2022-10-16T01:15:32;12.07;;;6.60;;
22871;SDS011;11603;44.910;8.630;2022-10-16T01:18:14;12.05;;;6.60;;
22871;SDS011;11603;44.910;8.630;2022-10-16T01:20:53;9.70;;;6.30;;
22871;SDS011;11603;44.910;8.630;2022-10-16T01:28:27;10.02;;;6.50;;
22871;SDS011;11603;44.910;8.630;2022-10-16T01:30:58;12.23;;;6.35;;
22871;SDS011;11603;44.910;8.630;2022-10-16T01:33:30;11.45;;;5.97;;
22871;SDS011;11603;44.910;8.630;2022-10-16T01:36:11;10.50;;;6.80;;
22871;SDS011;11603;44.910;8.630;2022-10-16T01:38:41;14.25;;;6.68;;
22871;SDS011;11603;44.910;8.630;2022-10-16T01:41:17;9.73;;;6.15;;
22871;SDS011;11603;44.910;8.630;2022-10-16T01:43:53;15.07;;;6.35;;
22871;SDS011;11603;44.910;8.630;2022-10-16T01:46:26;11.05;;;6.68;;
22871;SDS011;11603;44.910;8.630;2022-10-16T01:48:55;14.55;;;6.75;;
22871;SDS011;11603;44.910;8.630;2022-10-16T01:51:20;10.18;;;6.47;;
22871;SDS011;11603;44.910;8.630;2022-10-16T01:53:49;12.82;;;6.68;;
22871;SDS011;11603;44.910;8.630;2022-10-16T01:56:19;8.45;;;6.45;;
22871;SDS011;11603;44.910;8.630;2022-10-16T01:58:49;10.00;;;7.35;;
22871;SDS011;11603;44.910;8.630;2022-10-16T02:01:20;10.65;;;6.80;;
22871;SDS011;11603;44.910;8.630;2022-10-16T02:03:49;9.27;;;6.57;;
22871;SDS011;11603;44.910;8.630;2022-10-16T02:06:18;11.73;;;6.82;;
22871;SDS011;11603;44.910;8.630;2022-10-16T02:08:43;13.43;;;6.25;;
22871;SDS011;11603;44.910;8.630;2022-10-16T02:11:09;12.85;;;6.70;;
22871;SDS011;11603;44.910;8.630;2022-10-16T02:13:40;10.48;;;6.50;;
22871;SDS011;11603;44.910;8.630;2022-10-16T02:16:12;10.70;;;6.32;;
22871;SDS011;11603;44.910;8.630;2022-10-16T02:18:39;15.70;;;6.10;;
22871;SDS011;11603;44.910;8.630;2022-10-16T02:21:08;9.75;;;6.72;;
22871;SDS011;11603;44.910;8.630;2022-10-16T02:26:23;10.95;;;6.80;;
22871;SDS011;11603;44.910;8.630;2022-10-16T02:28:55;14.00;;;7.13;;
22871;SDS011;11603;44.910;8.630;2022-10-16T02:31:31;14.02;;;6.90;;
22871;SDS011;11603;44.910;8.630;2022-10-16T02:34:01;11.73;;;6.43;;
22871;SDS011;11603;44.910;8.630;2022-10-16T02:36:30;11.60;;;7.25;;
22871;SDS011;11603;44.910;8.630;2022-10-16T02:38:57;13.05;;;6.75;;
22871;SDS011;11603;44.910;8.630;2022-10-16T02:41:25;9.15;;;6.47;;
22871;SDS011;11603;44.910;8.630;2022-10-16T02:43:51;10.48;;;6.60;;
22871;SDS011;11603;44.910;8.630;2022-10-16T02:46:16;11.88;;;6.93;;
22871;SDS011;11603;44.910;8.630;2022-10-16T02:48:43;10.38;;;6.15;;
22871;SDS011;11603;44.910;8.630;2022-10-16T02:51:08;11.98;;;6.35;;
22871;SDS011;11603;44.910;8.630;2022-10-16T02:53:34;13.45;;;6.40;;
22871;SDS011;11603;44.910;8.630;2022-10-16T02:55:59;11.52;;;6.78;;
22871;SDS011;11603;44.910;8.630;2022-10-16T02:58:25;13.05;;;6.78;;
22871;SDS011;11603;44.910;8.630;2022-10-16T03:00:50;10.93;;;6.18;;
22871;SDS011;11603;44.910;8.630;2022-10-16T03:03:15;13.20;;;6.63;;
22871;SDS011;11603;44.910;8.630;2022-10-16T03:05:42;7.78;;;6.57;;
22871;SDS011;11603;44.910;8.630;2022-10-16T03:08:08;12.88;;;6.75;;
22871;SDS011;11603;44.910;8.630;2022-10-16T03:10:33;8.82;;;6.28;;
22871;SDS011;11603;44.910;8.630;2022-10-16T03:12:59;13.60;;;6.97;;
22871;SDS011;11603;44.910;8.630;2022-10-16T03:15:24;12.80;;;6.95;;
22871;SDS011;11603;44.910;8.630;2022-10-16T03:17:50;12.30;;;6.13;;
22871;SDS011;11603;44.910;8.630;2022-10-16T03:20:16;9.38;;;6.63;;
22871;SDS011;11603;44.910;8.630;2022-10-16T03:22:41;13.40;;;6.68;;
22871;SDS011;11603;44.910;8.630;2022-10-16T03:25:07;12.48;;;6.80;;
22871;SDS011;11603;44.910;8.630;2022-10-16T03:27:32;9.02;;;6.32;;
22871;SDS011;11603;44.910;8.630;2022-10-16T03:29:58;7.38;;;6.28;;
22871;SDS011;11603;44.910;8.630;2022-10-16T03:32:23;13.35;;;6.22;;
22871;SDS011;11603;44.910;8.630;2022-10-16T03:34:50;10.35;;;6.45;;
22871;SDS011;11603;44.910;8.630;2022-10-16T03:37:15;9.45;;;6.35;;
22871;SDS011;11603;44.910;8.630;2022-10-16T03:39:41;10.45;;;6.22;;
22871;SDS011;11603;44.910;8.630;2022-10-16T03:42:06;8.57;;;6.53;;
22871;SDS011;11603;44.910;8.630;2022-10-16T03:44:32;15.32;;;7.30;;
22871;SDS011;11603;44.910;8.630;2022-10-16T03:46:57;12.90;;;6.63;;
22871;SDS011;11603;44.910;8.630;2022-10-16T03:49:23;12.63;;;7.22;;
22871;SDS011;11603;44.910;8.630;2022-10-16T03:51:48;13.65;;;6.93;;
22871;SDS011;11603;44.910;8.630;2022-10-16T03:54:14;10.70;;;7.03;;
22871;SDS011;11603;44.910;8.630;2022-10-16T03:56:39;9.05;;;6.70;;
22871;SDS011;11603;44.910;8.630;2022-10-16T03:59:05;11.35;;;6.43;;
22871;SDS011;11603;44.910;8.630;2022-10-16T04:01:30;18.75;;;7.68;;
22871;SDS011;11603;44.910;8.630;2022-10-16T04:03:55;9.38;;;6.38;;
22871;SDS011;11603;44.910;8.630;2022-10-16T04:06:21;9.98;;;5.85;;
22871;SDS011;11603;44.910;8.630;2022-10-16T04:08:47;10.00;;;6.55;;
22871;SDS011;11603;44.910;8.630;2022-10-16T04:11:13;10.90;;;6.35;;
22871;SDS011;11603;44.910;8.630;2022-10-16T04:13:39;9.98;;;6.90;;
22871;SDS011;11603;44.910;8.630;2022-10-16T04:16:04;13.88;;;6.63;;
22871;SDS011;11603;44.910;8.630;2022-10-16T04:18:30;12.77;;;6.60;;
22871;SDS011;11603;44.910;8.630;2022-10-16T04:20:55;10.80;;;6.82;;
22871;SDS011;11603;44.910;8.630;2022-10-16T04:23:21;11.75;;;7.15;;
22871;SDS011;11603;44.910;8.630;2022-10-16T04:25:48;11.45;;;6.68;;
22871;SDS011;11603;44.910;8.630;2022-10-16T04:28:13;13.95;;;6.65;;
22871;SDS011;11603;44.910;8.630;2022-10-16T04:30:39;10.27;;;6.20;;
22871;SDS011;11603;44.910;8.630;2022-10-16T04:33:05;11.38;;;7.13;;
22871;SDS011;11603;44.910;8.630;2022-10-16T04:35:30;10.90;;;7.30;;
22871;SDS011;11603;44.910;8.630;2022-10-16T04:37:59;12.15;;;7.30;;
22871;SDS011;11603;44.910;8.630;2022-10-16T04:40:24;8.35;;;6.75;;
22871;SDS011;11603;44.910;8.630;2022-10-16T04:42:50;10.48;;;6.93;;
22871;SDS011;11603;44.910;8.630;2022-10-16T04:45:15;12.95;;;6.63;;
22871;SDS011;11603;44.910;8.630;2022-10-16T04:47:41;13.52;;;6.63;;
22871;SDS011;11603;44.910;8.630;2022-10-16T04:50:06;12.27;;;6.70;;
22871;SDS011;11603;44.910;8.630;2022-10-16T04:52:32;10.23;;;5.97;;
22871;SDS011;11603;44.910;8.630;2022-10-16T04:54:58;11.48;;;6.93;;
22871;SDS011;11603;44.910;8.630;2022-10-16T04:57:26;10.38;;;6.60;;
22871;SDS011;11603;44.910;8.630;2022-10-16T04:59:52;15.60;;;6.63;;
22871;SDS011;11603;44.910;8.630;2022-10-16T05:02:17;10.50;;;6.30;;
22871;SDS011;11603;44.910;8.630;2022-10-16T05:04:43;9.80;;;5.95;;
22871;SDS011;11603;44.910;8.630;2022-10-16T05:07:08;12.15;;;5.90;;
22871;SDS011;11603;44.910;8.630;2022-10-16T05:09:34;11.13;;;6.88;;
22871;SDS011;11603;44.910;8.630;2022-10-16T05:11:59;12.60;;;6.13;;
22871;SDS011;11603;44.910;8.630;2022-10-16T05:14:25;11.98;;;6.30;;
22871;SDS011;11603;44.910;8.630;2022-10-16T05:16:50;8.88;;;6.65;;
22871;SDS011;11603;44.910;8.630;2022-10-16T05:19:16;7.20;;;5.65;;
22871;SDS011;11603;44.910;8.630;2022-10-16T05:21:42;11.05;;;6.30;;
22871;SDS011;11603;44.910;8.630;2022-10-16T05:24:08;11.20;;;6.22;;
22871;SDS011;11603;44.910;8.630;2022-10-16T05:26:34;10.60;;;5.88;;
22871;SDS011;11603;44.910;8.630;2022-10-16T05:28:59;14.27;;;6.03;;
22871;SDS011;11603;44.910;8.630;2022-10-16T05:31:25;13.65;;;7.00;;
22871;SDS011;11603;44.910;8.630;2022-10-16T05:33:51;12.48;;;6.90;;
22871;SDS011;11603;44.910;8.630;2022-10-16T05:36:16;12.73;;;7.07;;
22871;SDS011;11603;44.910;8.630;2022-10-16T05:38:43;9.27;;;6.28;;
22871;SDS011;11603;44.910;8.630;2022-10-16T05:41:08;9.63;;;6.60;;
22871;SDS011;11603;44.910;8.630;2022-10-16T05:43:35;12.98;;;6.43;;
22871;SDS011;11603;44.910;8.630;2022-10-16T05:46:02;8.90;;;6.60;;
22871;SDS011;11603;44.910;8.630;2022-10-16T05:48:29;11.82;;;7.18;;
22871;SDS011;11603;44.910;8.630;2022-10-16T05:50:58;14.60;;;7.00;;
22871;SDS011;11603;44.910;8.630;2022-10-16T05:53:23;10.45;;;6.47;;
22871;SDS011;11603;44.910;8.630;2022-10-16T05:55:54;9.70;;;6.55;;
22871;SDS011;11603;44.910;8.630;2022-10-16T05:58:20;12.00;;;6.93;;
22871;SDS011;11603;44.910;8.630;2022-10-16T06:00:54;13.25;;;6.93;;
22871;SDS011;11603;44.910;8.630;2022-10-16T06:03:24;8.20;;;6.50;;
22871;SDS011;11603;44.910;8.630;2022-10-16T06:05:50;8.82;;;6.35;;
22871;SDS011;11603;44.910;8.630;2022-10-16T06:08:15;12.20;;;6.65;;
22871;SDS011;11603;44.910;8.630;2022-10-16T06:10:42;12.07;;;7.22;;
22871;SDS011;11603;44.910;8.630;2022-10-16T06:13:09;12.27;;;6.55;;
22871;SDS011;11603;44.910;8.630;2022-10-16T06:15:34;14.32;;;6.80;;
22871;SDS011;11603;44.910;8.630;2022-10-16T06:18:00;10.23;;;6.32;;
22871;SDS011;11603;44.910;8.630;2022-10-16T06:20:25;10.50;;;7.10;;
22871;SDS011;11603;44.910;8.630;2022-10-16T06:22:51;11.43;;;6.55;;
22871;SDS011;11603;44.910;8.630;2022-10-16T06:25:16;12.40;;;7.13;;
22871;SDS011;11603;44.910;8.630;2022-10-16T06:27:42;15.90;;;6.75;;
22871;SDS011;11603;44.910;8.630;2022-10-16T06:30:08;18.80;;;8.00;;
22871;SDS011;11603;44.910;8.630;2022-10-16T06:32:34;10.27;;;6.80;;
22871;SDS011;11603;44.910;8.630;2022-10-16T06:34:59;11.30;;;6.78;;
22871;SDS011;11603;44.910;8.630;2022-10-16T06:37:25;14.05;;;7.38;;
22871;SDS011;11603;44.910;8.630;2022-10-16T06:39:51;12.32;;;7.63;;
22871;SDS011;11603;44.910;8.630;2022-10-16T06:42:19;13.05;;;7.65;;
22871;SDS011;11603;44.910;8.630;2022-10-16T06:44:45;13.65;;;7.65;;
22871;SDS011;11603;44.910;8.630;2022-10-16T06:47:10;9.20;;;7.30;;
22871;SDS011;11603;44.910;8.630;2022-10-16T06:49:36;12.07;;;6.78;;
22871;SDS011;11603;44.910;8.630;2022-10-16T06:52:01;13.60;;;6.80;;
22871;SDS011;11603;44.910;8.630;2022-10-16T06:54:27;10.10;;;7.85;;
22871;SDS011;11603;44.910;8.630;2022-10-16T06:56:53;16.58;;;7.32;;
22871;SDS011;11603;44.910;8.630;2022-10-16T06:59:22;12.05;;;7.60;;
22871;SDS011;11603;44.910;8.630;2022-10-16T07:01:47;9.98;;;7.43;;
22871;SDS011;11603;44.910;8.630;2022-10-16T07:04:13;9.07;;;7.78;;
22871;SDS011;11603;44.910;8.630;2022-10-16T07:06:39;15.40;;;8.40;;
22871;SDS011;11603;44.910;8.630;2022-10-16T07:09:06;11.98;;;7.82;;
22871;SDS011;11603;44.910;8.630;2022-10-16T07:11:34;12.05;;;7.65;;
22871;SDS011;11603;44.910;8.630;2022-10-16T07:14:01;13.07;;;7.55;;
22871;SDS011;11603;44.910;8.630;2022-10-16T07:16:27;18.05;;;7.70;;
22871;SDS011;11603;44.910;8.630;2022-10-16T07:18:58;10.88;;;7.22;;
22871;SDS011;11603;44.910;8.630;2022-10-16T07:21:26;12.10;;;7.47;;
22871;SDS011;11603;44.910;8.630;2022-10-16T07:23:57;13.43;;;7.68;;
22871;SDS011;11603;44.910;8.630;2022-10-16T07:26:24;14.73;;;8.13;;
22871;SDS011;11603;44.910;8.630;2022-10-16T07:28:51;13.02;;;7.28;;
22871;SDS011;11603;44.910;8.630;2022-10-16T07:31:18;14.95;;;8.13;;
22871;SDS011;11603;44.910;8.630;2022-10-16T07:33:45;14.32;;;7.20;;
22871;SDS011;11603;44.910;8.630;2022-10-16T07:36:13;10.18;;;7.00;;
22871;SDS011;11603;44.910;8.630;2022-10-16T07:38:39;10.80;;;6.47;;
22871;SDS011;11603;44.910;8.630;2022-10-16T07:41:06;12.10;;;6.60;;
22871;SDS011;11603;44.910;8.630;2022-10-16T07:43:33;12.25;;;6.90;;
22871;SDS011;11603;44.910;8.630;2022-10-16T07:45:58;11.00;;;6.30;;
22871;SDS011;11603;44.910;8.630;2022-10-16T07:48:26;21.70;;;7.07;;
22871;SDS011;11603;44.910;8.630;2022-10-16T07:50:56;13.48;;;6.90;;
22871;SDS011;11603;44.910;8.630;2022-10-16T07:53:23;11.18;;;7.25;;
22871;SDS011;11603;44.910;8.630;2022-10-16T07:55:48;11.30;;;6.90;;
22871;SDS011;11603;44.910;8.630;2022-10-16T07:58:14;13.85;;;7.05;;
22871;SDS011;11603;44.910;8.630;2022-10-16T08:00:39;9.15;;;6.88;;
22871;SDS011;11603;44.910;8.630;2022-10-16T08:03:04;18.75;;;8.88;;
22871;SDS011;11603;44.910;8.630;2022-10-16T08:05:31;15.90;;;9.20;;
22871;SDS011;11603;44.910;8.630;2022-10-16T08:07:57;12.63;;;8.27;;
22871;SDS011;11603;44.910;8.630;2022-10-16T08:10:24;15.60;;;8.57;;
22871;SDS011;11603;44.910;8.630;2022-10-16T08:12:51;14.02;;;8.07;;
22871;SDS011;11603;44.910;8.630;2022-10-16T08:15:17;15.13;;;8.52;;
22871;SDS011;11603;44.910;8.630;2022-10-16T08:17:44;13.82;;;7.20;;
22871;SDS011;11603;44.910;8.630;2022-10-16T08:20:10;12.35;;;8.30;;
22871;SDS011;11603;44.910;8.630;2022-10-16T08:22:35;15.52;;;8.68;;
22871;SDS011;11603;44.910;8.630;2022-10-16T08:25:01;17.55;;;9.48;;
22871;SDS011;11603;44.910;8.630;2022-10-16T08:27:32;13.23;;;9.07;;
22871;SDS011;11603;44.910;8.630;2022-10-16T08:29:58;19.23;;;11.82;;
22871;SDS011;11603;44.910;8.630;2022-10-16T08:32:24;19.88;;;11.00;;
22871;SDS011;11603;44.910;8.630;2022-10-16T08:34:49;14.70;;;9.35;;
22871;SDS011;11603;44.910;8.630;2022-10-16T08:37:15;11.07;;;8.63;;
22871;SDS011;11603;44.910;8.630;2022-10-16T08:39:40;16.73;;;8.30;;
22871;SDS011;11603;44.910;8.630;2022-10-16T08:45:07;17.33;;;11.45;;
22871;SDS011;11603;44.910;8.630;2022-10-16T08:50:29;23.70;;;12.05;;
22871;SDS011;11603;44.910;8.630;2022-10-16T08:52:56;21.52;;;12.57;;
22871;SDS011;11603;44.910;8.630;2022-10-16T08:55:37;17.52;;;11.98;;
22871;SDS011;11603;44.910;8.630;2022-10-16T08:58:13;12.15;;;8.35;;
22871;SDS011;11603;44.910;8.630;2022-10-16T09:00:40;18.63;;;13.27;;
22871;SDS011;11603;44.910;8.630;2022-10-16T09:13:33;25.70;;;19.10;;
22871;SDS011;11603;44.910;8.630;2022-10-16T09:16:27;30.08;;;20.92;;
22871;SDS011;11603;44.910;8.630;2022-10-16T09:19:15;38.17;;;20.73;;
22871;SDS011;11603;44.910;8.630;2022-10-16T09:21:49;27.17;;;20.75;;
22871;SDS011;11603;44.910;8.630;2022-10-16T09:24:17;32.25;;;22.35;;
22871;SDS011;11603;44.910;8.630;2022-10-16T09:26:45;35.80;;;23.80;;
22871;SDS011;11603;44.910;8.630;2022-10-16T09:29:14;43.92;;;31.25;;
22871;SDS011;11603;44.910;8.630;2022-10-16T09:31:41;42.83;;;31.98;;
22871;SDS011;11603;44.910;8.630;2022-10-16T09:34:14;44.88;;;33.92;;
22871;SDS011;11603;44.910;8.630;2022-10-16T09:37:00;51.97;;;37.60;;
22871;SDS011;11603;44.910;8.630;2022-10-16T09:39:29;53.72;;;38.63;;
22871;SDS011;11603;44.910;8.630;2022-10-16T09:41:54;59.13;;;40.30;;
22871;SDS011;11603;44.910;8.630;2022-10-16T09:44:22;52.88;;;36.90;;
22871;SDS011;11603;44.910;8.630;2022-10-16T09:47:01;48.10;;;35.92;;
22871;SDS011;11603;44.910;8.630;2022-10-16T09:49:28;48.53;;;35.28;;
22871;SDS011;11603;44.910;8.630;2022-10-16T09:52:10;49.30;;;34.20;;
22871;SDS011;11603;44.910;8.630;2022-10-16T09:54:37;53.53;;;35.78;;
22871;SDS011;11603;44.910;8.630;2022-10-16T09:57:14;49.05;;;33.42;;
22871;SDS011;11603;44.910;8.630;2022-10-16T09:59:46;47.22;;;34.13;;
22871;SDS011;11603;44.910;8.630;2022-10-16T10:02:14;50.67;;;33.40;;
22871;SDS011;11603;44.910;8.630;2022-10-16T10:04:44;48.83;;;34.40;;
22871;SDS011;11603;44.910;8.630;2022-10-16T10:07:20;42.63;;;33.45;;
22871;SDS011;11603;44.910;8.630;2022-10-16T10:09:51;51.72;;;35.58;;
22871;SDS011;11603;44.910;8.630;2022-10-16T10:14:52;47.55;;;34.30;;
22871;SDS011;11603;44.910;8.630;2022-10-16T10:17:24;48.10;;;35.92;;
22871;SDS011;11603;44.910;8.630;2022-10-16T10:19:53;50.03;;;37.78;;
22871;SDS011;11603;44.910;8.630;2022-10-16T10:22:27;54.05;;;38.70;;
22871;SDS011;11603;44.910;8.630;2022-10-16T10:35:51;47.65;;;34.42;;
22871;SDS011;11603;44.910;8.630;2022-10-16T10:49:05;52.65;;;36.60;;
22871;SDS011;11603;44.910;8.630;2022-10-16T10:51:50;51.10;;;38.15;;
22871;SDS011;11603;44.910;8.630;2022-10-16T10:57:30;50.00;;;34.88;;
22871;SDS011;11603;44.910;8.630;2022-10-16T11:11:11;49.05;;;35.10;;
22871;SDS011;11603;44.910;8.630;2022-10-16T11:14:03;46.90;;;33.05;;
22871;SDS011;11603;44.910;8.630;2022-10-16T11:24:53;43.08;;;33.67;;
22871;SDS011;11603;44.910;8.630;2022-10-16T11:30:11;49.83;;;34.97;;
22871;SDS011;11603;44.910;8.630;2022-10-16T11:32:56;41.33;;;30.63;;
22871;SDS011;11603;44.910;8.630;2022-10-16T11:35:39;40.90;;;29.38;;
22871;SDS011;11603;44.910;8.630;2022-10-16T11:38:32;39.35;;;29.98;;
22871;SDS011;11603;44.910;8.630;2022-10-16T11:41:12;39.05;;;29.30;;
22871;SDS011;11603;44.910;8.630;2022-10-16T11:43:38;43.83;;;30.48;;
22871;SDS011;11603;44.910;8.630;2022-10-16T11:46:09;39.95;;;29.70;;
22871;SDS011;11603;44.910;8.630;2022-10-16T11:48:55;50.50;;;30.60;;
22871;SDS011;11603;44.910;8.630;2022-10-16T11:54:10;40.40;;;26.85;;
22871;SDS011;11603;44.910;8.630;2022-10-16T11:56:39;38.20;;;27.77;;
22871;SDS011;11603;44.910;8.630;2022-10-16T11:59:24;35.47;;;26.13;;
22871;SDS011;11603;44.910;8.630;2022-10-16T12:02:03;36.58;;;24.90;;
22871;SDS011;11603;44.910;8.630;2022-10-16T12:07:27;25.85;;;20.60;;
22871;SDS011;11603;44.910;8.630;2022-10-16T12:10:09;37.28;;;23.23;;
22871;SDS011;11603;44.910;8.630;2022-10-16T12:12:45;25.83;;;18.50;;
22871;SDS011;11603;44.910;8.630;2022-10-16T12:17:46;28.40;;;20.25;;
22871;SDS011;11603;44.910;8.630;2022-10-16T12:22:41;26.05;;;17.35;;
22871;SDS011;11603;44.910;8.630;2022-10-16T12:25:53;26.52;;;16.60;;
22871;SDS011;11603;44.910;8.630;2022-10-16T12:30:39;22.65;;;16.63;;
22871;SDS011;11603;44.910;8.630;2022-10-16T12:33:15;28.00;;;17.92;;
22871;SDS011;11603;44.910;8.630;2022-10-16T12:35:49;25.77;;;17.83;;
22871;SDS011;11603;44.910;8.630;2022-10-16T12:38:16;23.40;;;17.88;;
22871;SDS011;11603;44.910;8.630;2022-10-16T12:41:03;31.02;;;18.65;;
22871;SDS011;11603;44.910;8.630;2022-10-16T12:48:32;24.30;;;17.42;;
22871;SDS011;11603;44.910;8.630;2022-10-16T12:51:09;28.45;;;20.83;;
22871;SDS011;11603;44.910;8.630;2022-10-16T12:53:46;32.75;;;21.40;;
22871;SDS011;11603;44.910;8.630;2022-10-16T12:56:47;31.15;;;21.38;;
22871;SDS011;11603;44.910;8.630;2022-10-16T12:59:21;31.55;;;22.58;;
22871;SDS011;11603;44.910;8.630;2022-10-16T13:05:01;29.75;;;20.25;;
22871;SDS011;11603;44.910;8.630;2022-10-16T13:10:25;27.98;;;20.98;;
22871;SDS011;11603;44.910;8.630;2022-10-16T13:29:18;30.30;;;19.02;;
22871;SDS011;11603;44.910;8.630;2022-10-16T13:31:44;24.33;;;18.33;;
22871;SDS011;11603;44.910;8.630;2022-10-16T13:34:20;29.13;;;19.38;;
22871;SDS011;11603;44.910;8.630;2022-10-16T13:36:48;26.92;;;19.13;;
22871;SDS011;11603;44.910;8.630;2022-10-16T13:39:21;27.25;;;19.63;;
22871;SDS011;11603;44.910;8.630;2022-10-16T13:44:42;32.60;;;18.98;;
22871;SDS011;11603;44.910;8.630;2022-10-16T13:47:14;26.15;;;17.42;;
22871;SDS011;11603;44.910;8.630;2022-10-16T13:49:45;24.85;;;17.73;;
22871;SDS011;11603;44.910;8.630;2022-10-16T13:52:20;22.50;;;18.40;;
22871;SDS011;11603;44.910;8.630;2022-10-16T13:54:46;22.75;;;17.80;;
22871;SDS011;11603;44.910;8.630;2022-10-16T13:57:15;29.85;;;18.95;;
22871;SDS011;11603;44.910;8.630;2022-10-16T13:59:41;27.85;;;17.63;;
22871;SDS011;11603;44.910;8.630;2022-10-16T14:04:55;25.27;;;18.20;;
22871;SDS011;11603;44.910;8.630;2022-10-16T14:07:26;28.50;;;17.77;;
22871;SDS011;11603;44.910;8.630;2022-10-16T14:09:54;24.20;;;16.48;;
22871;SDS011;11603;44.910;8.630;2022-10-16T14:12:20;25.27;;;17.33;;
22871;SDS011;11603;44.910;8.630;2022-10-16T14:14:48;21.70;;;16.27;;
22871;SDS011;11603;44.910;8.630;2022-10-16T14:19:53;23.50;;;16.35;;
22871;SDS011;11603;44.910;8.630;2022-10-16T14:22:32;27.48;;;16.35;;
22871;SDS011;11603;44.910;8.630;2022-10-16T14:24:58;23.60;;;16.58;;
22871;SDS011;11603;44.910;8.630;2022-10-16T14:27:32;23.67;;;17.77;;
22871;SDS011;11603;44.910;8.630;2022-10-16T14:30:33;23.08;;;15.82;;
22871;SDS011;11603;44.910;8.630;2022-10-16T14:32:53;22.83;;;16.77;;
22871;SDS011;11603;44.910;8.630;2022-10-16T14:35:22;21.65;;;15.95;;
22871;SDS011;11603;44.910;8.630;2022-10-16T14:37:55;20.88;;;15.95;;
22871;SDS011;11603;44.910;8.630;2022-10-16T14:40:23;21.90;;;15.27;;
22871;SDS011;11603;44.910;8.630;2022-10-16T14:42:57;18.40;;;13.50;;
22871;SDS011;11603;44.910;8.630;2022-10-16T14:45:24;20.33;;;12.57;;
22871;SDS011;11603;44.910;8.630;2022-10-16T14:47:54;15.77;;;11.60;;
22871;SDS011;11603;44.910;8.630;2022-10-16T14:50:23;18.33;;;12.57;;
22871;SDS011;11603;44.910;8.630;2022-10-16T14:52:49;18.00;;;13.35;;
22871;SDS011;11603;44.910;8.630;2022-10-16T14:55:15;20.50;;;13.80;;
22871;SDS011;11603;44.910;8.630;2022-10-16T14:57:41;16.20;;;12.07;;
22871;SDS011;11603;44.910;8.630;2022-10-16T15:00:13;16.13;;;11.48;;
22871;SDS011;11603;44.910;8.630;2022-10-16T15:02:44;19.67;;;12.30;;
22871;SDS011;11603;44.910;8.630;2022-10-16T15:05:24;17.55;;;12.80;;
22871;SDS011;11603;44.910;8.630;2022-10-16T15:07:51;21.05;;;12.52;;
22871;SDS011;11603;44.910;8.630;2022-10-16T15:10:18;19.70;;;13.40;;
22871;SDS011;11603;44.910;8.630;2022-10-16T15:12:46;18.00;;;12.25;;
22871;SDS011;11603;44.910;8.630;2022-10-16T15:17:46;17.15;;;11.25;;
22871;SDS011;11603;44.910;8.630;2022-10-16T15:20:13;17.88;;;10.75;;
22871;SDS011;11603;44.910;8.630;2022-10-16T15:22:38;16.83;;;11.02;;
22871;SDS011;11603;44.910;8.630;2022-10-16T15:25:25;18.52;;;11.57;;
22871;SDS011;11603;44.910;8.630;2022-10-16T15:27:58;13.30;;;10.63;;
22871;SDS011;11603;44.910;8.630;2022-10-16T15:30:24;15.80;;;10.88;;
22871;SDS011;11603;44.910;8.630;2022-10-16T15:32:50;14.80;;;10.48;;
22871;SDS011;11603;44.910;8.630;2022-10-16T15:35:16;13.82;;;9.80;;
22871;SDS011;11603;44.910;8.630;2022-10-16T15:37:41;16.25;;;10.52;;
22871;SDS011;11603;44.910;8.630;2022-10-16T15:40:08;17.50;;;10.40;;
22871;SDS011;11603;44.910;8.630;2022-10-16T15:42:35;15.90;;;9.93;;
22871;SDS011;11603;44.910;8.630;2022-10-16T15:45:00;14.30;;;9.60;;
22871;SDS011;11603;44.910;8.630;2022-10-16T15:47:26;17.10;;;10.23;;
22871;SDS011;11603;44.910;8.630;2022-10-16T15:49:52;11.32;;;9.15;;
22871;SDS011;11603;44.910;8.630;2022-10-16T15:52:17;15.52;;;10.63;;
22871;SDS011;11603;44.910;8.630;2022-10-16T15:54:43;15.07;;;10.90;;
22871;SDS011;11603;44.910;8.630;2022-10-16T15:57:08;16.25;;;11.52;;
22871;SDS011;11603;44.910;8.630;2022-10-16T15:59:34;17.08;;;11.27;;
22871;SDS011;11603;44.910;8.630;2022-10-16T16:02:00;17.77;;;11.50;;
22871;SDS011;11603;44.910;8.630;2022-10-16T16:04:25;20.67;;;12.38;;
22871;SDS011;11603;44.910;8.630;2022-10-16T16:06:51;19.10;;;10.98;;
22871;SDS011;11603;44.910;8.630;2022-10-16T16:09:16;14.93;;;10.88;;
22871;SDS011;11603;44.910;8.630;2022-10-16T16:11:42;17.55;;;10.65;;
22871;SDS011;11603;44.910;8.630;2022-10-16T16:14:09;15.23;;;10.20;;
22871;SDS011;11603;44.910;8.630;2022-10-16T16:16:37;15.13;;;12.38;;
22871;SDS011;11603;44.910;8.630;2022-10-16T16:19:03;18.88;;;14.40;;
22871;SDS011;11603;44.910;8.630;2022-10-16T16:21:31;19.70;;;13.95;;
22871;SDS011;11603;44.910;8.630;2022-10-16T16:23:57;19.77;;;14.10;;
22871;SDS011;11603;44.910;8.630;2022-10-16T16:26:26;20.02;;;14.70;;
22871;SDS011;11603;44.910;8.630;2022-10-16T16:28:57;18.05;;;14.30;;
22871;SDS011;11603;44.910;8.630;2022-10-16T16:31:24;18.30;;;15.23;;
22871;SDS011;11603;44.910;8.630;2022-10-16T16:33:50;21.08;;;14.57;;
22871;SDS011;11603;44.910;8.630;2022-10-16T16:36:16;24.30;;;14.50;;
22871;SDS011;11603;44.910;8.630;2022-10-16T16:38:43;17.75;;;13.50;;
22871;SDS011;11603;44.910;8.630;2022-10-16T16:41:19;19.92;;;14.52;;
22871;SDS011;11603;44.910;8.630;2022-10-16T16:43:46;21.35;;;14.27;;
22871;SDS011;11603;44.910;8.630;2022-10-16T16:46:12;20.80;;;14.70;;
22871;SDS011;11603;44.910;8.630;2022-10-16T16:48:39;22.65;;;14.07;;
22871;SDS011;11603;44.910;8.630;2022-10-16T16:51:05;19.77;;;15.05;;
22871;SDS011;11603;44.910;8.630;2022-10-16T16:53:33;23.58;;;15.57;;